Aviation Digital Data Service (ADDS)

Output produced by METARs form (2237 UTC 30 March 2017)
found at http://www.aviationweather.gov/adds/metars/
 
TAF MTPP 301700Z 3018/3118 VRB02KT 9999 FEW026 
     BECMG 3018/3122 27010KT 
     BECMG 3106/3110 VRB02KT 9999 FEW020 
     BECMG 3113/3117 09010KT